FAB008 SLET-SLTR
Flight info
| Callsign | FAB008 |
|---|---|
| Flight time | 0h 57m |
| Altitude | 36000 |
| Route | VIR UN420 TRI |
| Aircraft | LJ35/M-SGHRWXY/SB1 |
Departure
| Time | 2026-04-26 20:31 |
|---|---|
| Airport | El Trompillo Airport (SLET) |
Arrival
| Time | 2026-04-26 21:28 |
|---|---|
| Airport | Teniente Av. Jorge Henrich Arauz Airport (SLTR) |
| Time | Latitude | Longitude | Altitude | Speed | Heading |
|---|---|---|---|---|---|
| 2026-04-26 19:42 | -17.80555 | -63.17763 | 1372 ft | 0 kts | 147° |
| 2026-04-26 20:25 | -17.80554 | -63.17763 | 1375 ft | 0 kts | 147° |
| 2026-04-26 20:26 | -17.80560 | -63.17760 | 1388 ft | 4 kts | 147° |
| 2026-04-26 20:26 | -17.80596 | -63.17736 | 1388 ft | 6 kts | 148° |
| 2026-04-26 20:26 | -17.80607 | -63.17713 | 1388 ft | 5 kts | 38° |
| 2026-04-26 20:26 | -17.80571 | -63.17685 | 1389 ft | 4 kts | 53° |
| 2026-04-26 20:27 | -17.80568 | -63.17681 | 1389 ft | 0 kts | 53° |
| 2026-04-26 20:27 | -17.80567 | -63.17680 | 1389 ft | 2 kts | 53° |
| 2026-04-26 20:28 | -17.80562 | -63.17673 | 1389 ft | 0 kts | 53° |
| 2026-04-26 20:29 | -17.80560 | -63.17670 | 1389 ft | 2 kts | 52° |
| 2026-04-26 20:29 | -17.80537 | -63.17640 | 1390 ft | 9 kts | 52° |
| 2026-04-26 20:30 | -17.80556 | -63.17592 | 1388 ft | 10 kts | 146° |
| 2026-04-26 20:30 | -17.80561 | -63.17588 | 1387 ft | 0 kts | 144° |
| 2026-04-26 20:30 | -17.80562 | -63.17588 | 1387 ft | 2 kts | 144° |
| 2026-04-26 20:30 | -17.80768 | -63.17432 | 1385 ft | 92 kts | 144° |
| 2026-04-26 20:31 | -17.81578 | -63.16821 | 1676 ft | 173 kts | 145° |
| 2026-04-26 20:31 | -17.82655 | -63.15999 | 2360 ft | 215 kts | 143° |
| 2026-04-26 20:31 | -17.83880 | -63.15238 | 4042 ft | 196 kts | 160° |
| 2026-04-26 20:31 | -17.85368 | -63.14665 | 5050 ft | 230 kts | 156° |
| 2026-04-26 20:32 | -17.86797 | -63.14027 | 6374 ft | 221 kts | 158° |
| 2026-04-26 20:32 | -17.88212 | -63.13460 | 6764 ft | 223 kts | 162° |
| 2026-04-26 20:32 | -17.89641 | -63.12818 | 8214 ft | 198 kts | 153° |
| 2026-04-26 20:32 | -17.90678 | -63.12137 | 10013 ft | 198 kts | 145° |
| 2026-04-26 20:33 | -17.91788 | -63.10815 | 10132 ft | 263 kts | 114° |
| 2026-04-26 20:33 | -17.92056 | -63.09235 | 12456 ft | 192 kts | 75° |
| 2026-04-26 20:33 | -17.91449 | -63.07990 | 13749 ft | 202 kts | 41° |
| 2026-04-26 20:33 | -17.90248 | -63.07150 | 14617 ft | 210 kts | 15° |
| 2026-04-26 20:34 | -17.88887 | -63.07069 | 16032 ft | 187 kts | 341° |
| 2026-04-26 20:34 | -17.87792 | -63.07806 | 17081 ft | 196 kts | 313° |
| 2026-04-26 20:34 | -17.86826 | -63.08810 | 18228 ft | 197 kts | 313° |
| 2026-04-26 20:34 | -17.85868 | -63.09843 | 19363 ft | 195 kts | 311° |
| 2026-04-26 20:35 | -17.84924 | -63.10934 | 20197 ft | 209 kts | 309° |
| 2026-04-26 20:35 | -17.84165 | -63.11823 | 20921 ft | 215 kts | 318° |
| 2026-04-26 20:38 | -17.84028 | -63.11940 | 21037 ft | 216 kts | 321° |
| 2026-04-26 20:38 | -17.82936 | -63.12494 | 21543 ft | 240 kts | 340° |
| 2026-04-26 20:40 | -17.82316 | -63.12650 | 21544 ft | 233 kts | 349° |
| 2026-04-26 20:42 | -17.82102 | -63.12677 | 21613 ft | 226 kts | 353° |
| 2026-04-26 20:42 | -17.80591 | -63.12743 | 21720 ft | 205 kts | 356° |
| 2026-04-26 20:42 | -17.79227 | -63.12762 | 21666 ft | 194 kts | 356° |
| 2026-04-26 20:43 | -17.77639 | -63.12877 | 21063 ft | 268 kts | 352° |
| 2026-04-26 20:43 | -17.76429 | -63.13072 | 21840 ft | 251 kts | 346° |
| 2026-04-26 20:43 | -17.75078 | -63.13478 | 24395 ft | 167 kts | 336° |
| 2026-04-26 20:43 | -17.73928 | -63.14016 | 24732 ft | 212 kts | 338° |
| 2026-04-26 20:44 | -17.72215 | -63.14254 | 24482 ft | 275 kts | 2° |
| 2026-04-26 20:44 | -17.69851 | -63.13357 | 25683 ft | 281 kts | 26° |
| 2026-04-26 20:44 | -17.68061 | -63.12380 | 26485 ft | 278 kts | 27° |
| 2026-04-26 20:44 | -17.67270 | -63.11940 | 27680 ft | 233 kts | 27° |
| 2026-04-26 20:46 | -17.66782 | -63.11668 | 28619 ft | 206 kts | 27° |
| 2026-04-26 20:46 | -17.65534 | -63.10985 | 29596 ft | 217 kts | 27° |
| 2026-04-26 20:46 | -17.63956 | -63.10160 | 28945 ft | 282 kts | 24° |
| 2026-04-26 20:47 | -17.62114 | -63.09356 | 29797 ft | 275 kts | 18° |
| 2026-04-26 20:47 | -17.60965 | -63.09022 | 30887 ft | 245 kts | 3° |
| 2026-04-26 20:47 | -17.58802 | -63.09491 | 31526 ft | 259 kts | 327° |
| 2026-04-26 20:47 | -17.57299 | -63.10730 | 31588 ft | 282 kts | 317° |
| 2026-04-26 20:48 | -17.55762 | -63.11778 | 33031 ft | 247 kts | 340° |
| 2026-04-26 20:48 | -17.54521 | -63.12087 | 33631 ft | 252 kts | 351° |
| 2026-04-26 20:48 | -17.53855 | -63.12139 | 33838 ft | 255 kts | 355° |
| 2026-04-26 20:48 | -17.52062 | -63.12243 | 34273 ft | 261 kts | 356° |
| 2026-04-26 20:49 | -17.50239 | -63.12277 | 34792 ft | 261 kts | 353° |
| 2026-04-26 20:49 | -17.48404 | -63.12442 | 35200 ft | 267 kts | 348° |
| 2026-04-26 20:49 | -17.46657 | -63.13042 | 35558 ft | 269 kts | 329° |
| 2026-04-26 20:49 | -17.45037 | -63.14089 | 35879 ft | 278 kts | 327° |
| 2026-04-26 20:50 | -17.43327 | -63.15172 | 35937 ft | 299 kts | 326° |
| 2026-04-26 20:50 | -17.41737 | -63.16228 | 35940 ft | 318 kts | 324° |
| 2026-04-26 20:50 | -17.39849 | -63.17614 | 35992 ft | 336 kts | 321° |
| 2026-04-26 20:51 | -17.39696 | -63.17735 | 36022 ft | 337 kts | 321° |
| 2026-04-26 20:54 | -17.39362 | -63.18004 | 36107 ft | 329 kts | 320° |
| 2026-04-26 20:54 | -17.37671 | -63.19383 | 36425 ft | 297 kts | 320° |
| 2026-04-26 20:54 | -17.36164 | -63.20633 | 36639 ft | 269 kts | 319° |
| 2026-04-26 20:54 | -17.34659 | -63.21873 | 35829 ft | 295 kts | 319° |
| 2026-04-26 20:55 | -17.33170 | -63.23184 | 34838 ft | 351 kts | 317° |
| 2026-04-26 20:56 | -17.32780 | -63.23545 | 34707 ft | 360 kts | 317° |
| 2026-04-26 20:56 | -17.30834 | -63.25351 | 34727 ft | 378 kts | 317° |
| 2026-04-26 20:56 | -17.28894 | -63.27081 | 36009 ft | 354 kts | 321° |
| 2026-04-26 20:57 | -17.26891 | -63.28609 | 36398 ft | 366 kts | 323° |
| 2026-04-26 20:57 | -17.24774 | -63.30167 | 36665 ft | 376 kts | 323° |
| 2026-04-26 20:57 | -17.22622 | -63.31748 | 37153 ft | 379 kts | 323° |
| 2026-04-26 20:57 | -17.20476 | -63.33352 | 37725 ft | 379 kts | 322° |
| 2026-04-26 20:58 | -17.18306 | -63.34976 | 37364 ft | 402 kts | 323° |
| 2026-04-26 20:58 | -17.15909 | -63.36750 | 36238 ft | 435 kts | 324° |
| 2026-04-26 20:58 | -17.13488 | -63.38503 | 36643 ft | 411 kts | 324° |
| 2026-04-26 20:58 | -17.11114 | -63.40170 | 35978 ft | 414 kts | 326° |
| 2026-04-26 20:59 | -17.08656 | -63.41807 | 35500 ft | 417 kts | 326° |
| 2026-04-26 20:59 | -17.06248 | -63.43442 | 36148 ft | 409 kts | 325° |
| 2026-04-26 20:59 | -17.03892 | -63.45061 | 36281 ft | 398 kts | 325° |
| 2026-04-26 21:00 | -16.99387 | -63.48194 | 36293 ft | 380 kts | 324° |
| 2026-04-26 21:00 | -16.95194 | -63.51394 | 36212 ft | 369 kts | 320° |
| 2026-04-26 21:00 | -16.93214 | -63.53094 | 36058 ft | 367 kts | 318° |
| 2026-04-26 21:01 | -16.91258 | -63.54897 | 35893 ft | 386 kts | 317° |
| 2026-04-26 21:01 | -16.89263 | -63.56761 | 36300 ft | 390 kts | 317° |
| 2026-04-26 21:01 | -16.87272 | -63.58683 | 36794 ft | 393 kts | 315° |
| 2026-04-26 21:01 | -16.85285 | -63.60701 | 37057 ft | 399 kts | 314° |
| 2026-04-26 21:02 | -16.83373 | -63.62751 | 37925 ft | 389 kts | 313° |
| 2026-04-26 21:02 | -16.81509 | -63.64783 | 38339 ft | 394 kts | 312° |
| 2026-04-26 21:02 | -16.79497 | -63.66861 | 37869 ft | 419 kts | 316° |
| 2026-04-26 21:02 | -16.77333 | -63.68953 | 37989 ft | 426 kts | 315° |
| 2026-04-26 21:03 | -16.75182 | -63.71067 | 38462 ft | 425 kts | 316° |
| 2026-04-26 21:03 | -16.73049 | -63.73163 | 39135 ft | 413 kts | 315° |
| 2026-04-26 21:03 | -16.70950 | -63.75268 | 38813 ft | 432 kts | 315° |
| 2026-04-26 21:03 | -16.68743 | -63.77552 | 37589 ft | 458 kts | 314° |
| 2026-04-26 21:04 | -16.66589 | -63.79841 | 36894 ft | 430 kts | 313° |
| 2026-04-26 21:04 | -16.64555 | -63.82026 | 36609 ft | 411 kts | 313° |
| 2026-04-26 21:04 | -16.62579 | -63.84136 | 36138 ft | 404 kts | 314° |
| 2026-04-26 21:04 | -16.60516 | -63.86131 | 35403 ft | 406 kts | 320° |
| 2026-04-26 21:05 | -16.58333 | -63.87938 | 35561 ft | 398 kts | 321° |
| 2026-04-26 21:05 | -16.56135 | -63.89751 | 35529 ft | 409 kts | 320° |
| 2026-04-26 21:05 | -16.53899 | -63.91681 | 35406 ft | 428 kts | 319° |
| 2026-04-26 21:05 | -16.51604 | -63.93776 | 35161 ft | 447 kts | 317° |
| 2026-04-26 21:06 | -16.49390 | -63.95977 | 36121 ft | 431 kts | 315° |
| 2026-04-26 21:06 | -16.47228 | -63.98181 | 36144 ft | 443 kts | 314° |
| 2026-04-26 21:06 | -16.45053 | -64.00499 | 36355 ft | 446 kts | 313° |
| 2026-04-26 21:06 | -16.42955 | -64.02857 | 36786 ft | 444 kts | 311° |
| 2026-04-26 21:07 | -16.40931 | -64.05278 | 37265 ft | 441 kts | 309° |
| 2026-04-26 21:07 | -16.39007 | -64.07689 | 37787 ft | 438 kts | 309° |
| 2026-04-26 21:07 | -16.36960 | -64.10125 | 36877 ft | 459 kts | 312° |
| 2026-04-26 21:07 | -16.34748 | -64.12499 | 35858 ft | 453 kts | 314° |
| 2026-04-26 21:08 | -16.32460 | -64.14759 | 35498 ft | 451 kts | 317° |
| 2026-04-26 21:08 | -16.30087 | -64.16886 | 35982 ft | 447 kts | 320° |
| 2026-04-26 21:08 | -16.27612 | -64.18851 | 36212 ft | 450 kts | 322° |
| 2026-04-26 21:08 | -16.25061 | -64.20852 | 35561 ft | 467 kts | 322° |
| 2026-04-26 21:09 | -16.22503 | -64.22937 | 35536 ft | 463 kts | 321° |
| 2026-04-26 21:09 | -16.19978 | -64.24933 | 36290 ft | 448 kts | 322° |
| 2026-04-26 21:09 | -16.17532 | -64.26792 | 36997 ft | 441 kts | 323° |
| 2026-04-26 21:10 | -16.12451 | -64.30610 | 36736 ft | 457 kts | 323° |
| 2026-04-26 21:10 | -16.09884 | -64.32540 | 36932 ft | 454 kts | 324° |
| 2026-04-26 21:10 | -16.07278 | -64.34352 | 37434 ft | 446 kts | 326° |
| 2026-04-26 21:10 | -16.04651 | -64.36097 | 37199 ft | 457 kts | 327° |
| 2026-04-26 21:11 | -16.01973 | -64.37845 | 37108 ft | 447 kts | 327° |
| 2026-04-26 21:11 | -15.99322 | -64.39572 | 35967 ft | 461 kts | 327° |
| 2026-04-26 21:11 | -15.96535 | -64.41359 | 34086 ft | 468 kts | 327° |
| 2026-04-26 21:11 | -15.93798 | -64.43087 | 33379 ft | 450 kts | 328° |
| 2026-04-26 21:12 | -15.91146 | -64.44756 | 32458 ft | 448 kts | 328° |
| 2026-04-26 21:12 | -15.88401 | -64.46416 | 31526 ft | 457 kts | 329° |
| 2026-04-26 21:12 | -15.85751 | -64.48059 | 32103 ft | 431 kts | 328° |
| 2026-04-26 21:12 | -15.83185 | -64.49652 | 32852 ft | 430 kts | 328° |
| 2026-04-26 21:13 | -15.80581 | -64.51213 | 33320 ft | 436 kts | 330° |
| 2026-04-26 21:13 | -15.77908 | -64.52743 | 33730 ft | 441 kts | 330° |
| 2026-04-26 21:13 | -15.75173 | -64.54217 | 34121 ft | 445 kts | 331° |
| 2026-04-26 21:13 | -15.72439 | -64.55734 | 34546 ft | 446 kts | 330° |
| 2026-04-26 21:14 | -15.69766 | -64.57314 | 34930 ft | 448 kts | 328° |
| 2026-04-26 21:14 | -15.67066 | -64.59028 | 35266 ft | 450 kts | 327° |
| 2026-04-26 21:14 | -15.64481 | -64.60799 | 35529 ft | 453 kts | 325° |
| 2026-04-26 21:14 | -15.61895 | -64.62689 | 34951 ft | 442 kts | 323° |
| 2026-04-26 21:15 | -15.59474 | -64.64523 | 34448 ft | 429 kts | 322° |
| 2026-04-26 21:15 | -15.57096 | -64.66359 | 34215 ft | 412 kts | 322° |
| 2026-04-26 21:15 | -15.54846 | -64.68057 | 33886 ft | 400 kts | 323° |
| 2026-04-26 21:15 | -15.52543 | -64.69673 | 33119 ft | 400 kts | 326° |
| 2026-04-26 21:16 | -15.50192 | -64.71295 | 32084 ft | 412 kts | 324° |
| 2026-04-26 21:16 | -15.47857 | -64.73045 | 31255 ft | 414 kts | 322° |
| 2026-04-26 21:16 | -15.45453 | -64.74881 | 30595 ft | 448 kts | 322° |
| 2026-04-26 21:16 | -15.42894 | -64.76876 | 30489 ft | 465 kts | 321° |
| 2026-04-26 21:17 | -15.40372 | -64.78913 | 31499 ft | 449 kts | 320° |
| 2026-04-26 21:17 | -15.37988 | -64.80917 | 32287 ft | 447 kts | 320° |
| 2026-04-26 21:17 | -15.35459 | -64.83013 | 30945 ft | 483 kts | 320° |
| 2026-04-26 21:17 | -15.32862 | -64.85164 | 29777 ft | 467 kts | 320° |
| 2026-04-26 21:18 | -15.30376 | -64.87233 | 27994 ft | 454 kts | 320° |
| 2026-04-26 21:18 | -15.27929 | -64.89269 | 25740 ft | 458 kts | 320° |
| 2026-04-26 21:18 | -15.25473 | -64.91331 | 23739 ft | 451 kts | 320° |
| 2026-04-26 21:18 | -15.23083 | -64.93354 | 20928 ft | 423 kts | 320° |
| 2026-04-26 21:19 | -15.20732 | -64.95296 | 18102 ft | 440 kts | 322° |
| 2026-04-26 21:19 | -15.18402 | -64.97163 | 15688 ft | 403 kts | 322° |
| 2026-04-26 21:19 | -15.16140 | -64.98906 | 13540 ft | 404 kts | 323° |
| 2026-04-26 21:19 | -15.13886 | -65.00567 | 11867 ft | 389 kts | 324° |
| 2026-04-26 21:20 | -15.11696 | -65.02100 | 10487 ft | 369 kts | 326° |
| 2026-04-26 21:20 | -15.09580 | -65.03528 | 8841 ft | 359 kts | 327° |
| 2026-04-26 21:20 | -15.07509 | -65.04896 | 7049 ft | 332 kts | 327° |
| 2026-04-26 21:20 | -15.05700 | -65.06063 | 6396 ft | 294 kts | 328° |
| 2026-04-26 21:21 | -15.03992 | -65.07162 | 5724 ft | 288 kts | 328° |
| 2026-04-26 21:21 | -15.02316 | -65.08263 | 5408 ft | 281 kts | 327° |
| 2026-04-26 21:21 | -15.00664 | -65.09377 | 4669 ft | 288 kts | 327° |
| 2026-04-26 21:21 | -14.98966 | -65.10525 | 4051 ft | 292 kts | 331° |
| 2026-04-26 21:22 | -14.97134 | -65.11321 | 3780 ft | 281 kts | 342° |
| 2026-04-26 21:22 | -14.95325 | -65.11831 | 4009 ft | 274 kts | 346° |
| 2026-04-26 21:22 | -14.93349 | -65.12201 | 4087 ft | 317 kts | 352° |
| 2026-04-26 21:23 | -14.89017 | -65.12192 | 5040 ft | 289 kts | 4° |
| 2026-04-26 21:23 | -14.87146 | -65.11981 | 5743 ft | 265 kts | 7° |
| 2026-04-26 21:23 | -14.85246 | -65.11549 | 5091 ft | 293 kts | 15° |
| 2026-04-26 21:23 | -14.83458 | -65.10559 | 4788 ft | 284 kts | 34° |
| 2026-04-26 21:24 | -14.81988 | -65.09303 | 4106 ft | 269 kts | 39° |
| 2026-04-26 21:24 | -14.80671 | -65.07994 | 3785 ft | 254 kts | 48° |
| 2026-04-26 21:24 | -14.79651 | -65.06610 | 3749 ft | 235 kts | 52° |
| 2026-04-26 21:24 | -14.78740 | -65.05231 | 3278 ft | 232 kts | 55° |
| 2026-04-26 21:25 | -14.77878 | -65.03824 | 2941 ft | 222 kts | 56° |
| 2026-04-26 21:25 | -14.77131 | -65.02535 | 2816 ft | 200 kts | 59° |
| 2026-04-26 21:25 | -14.76669 | -65.01249 | 2673 ft | 186 kts | 74° |
| 2026-04-26 21:25 | -14.76563 | -64.99936 | 2492 ft | 180 kts | 86° |
| 2026-04-26 21:26 | -14.76618 | -64.98724 | 2195 ft | 184 kts | 95° |
| 2026-04-26 21:26 | -14.76912 | -64.97501 | 1915 ft | 171 kts | 110° |
| 2026-04-26 21:26 | -14.77524 | -64.96462 | 1552 ft | 162 kts | 127° |
| 2026-04-26 21:26 | -14.78226 | -64.95609 | 1325 ft | 153 kts | 131° |
| 2026-04-26 21:27 | -14.78953 | -64.94841 | 1218 ft | 148 kts | 135° |
| 2026-04-26 21:27 | -14.79662 | -64.94087 | 1048 ft | 143 kts | 133° |
| 2026-04-26 21:27 | -14.80353 | -64.93366 | 847 ft | 142 kts | 133° |
| 2026-04-26 21:27 | -14.81030 | -64.92665 | 612 ft | 132 kts | 134° |
| 2026-04-26 21:28 | -14.81617 | -64.92060 | 514 ft | 93 kts | 135° |
| 2026-04-26 21:28 | -14.81947 | -64.91721 | 515 ft | 54 kts | 136° |
| 2026-04-26 21:28 | -14.82133 | -64.91538 | 517 ft | 24 kts | 156° |
| 2026-04-26 21:28 | -14.82172 | -64.91650 | 517 ft | 19 kts | 268° |
| 2026-04-26 21:29 | -14.82185 | -64.91748 | 516 ft | 12 kts | 211° |
| 2026-04-26 21:29 | -14.82229 | -64.91792 | 516 ft | 8 kts | 314° |
| 2026-04-26 21:29 | -14.82172 | -64.91844 | 516 ft | 10 kts | 317° |
| 2026-04-26 21:29 | -14.82159 | -64.91856 | 516 ft | 3 kts | 310° |
| 2026-04-26 21:30 | -14.82177 | -64.91895 | 516 ft | 5 kts | 199° |
| 2026-04-26 21:30 | -14.82188 | -64.91888 | 516 ft | 0 kts | 77° |
| 2026-04-26 22:08 | -14.82188 | -64.91889 | 516 ft | 0 kts | 77° |
| 2026-04-27 00:32 | -14.82188 | -64.91890 | 516 ft | 0 kts | 77° |
| 2026-04-27 01:54 | -14.82188 | -64.91891 | 508 ft | 0 kts | 77° |